Time;durP1;ratioP1;P1;durP2;ratioP2;P2;SDS_P1;SDS_P2;PMS_P1;PMS_P2;Temp;Humidity;BMP_temperature;BMP_pressure;BME280_temperature;BME280_humidity;BME280_pressure;Samples;Min_cycle;Max_cycle;Signal;HPM_P1;HPM_P2
2022/05/06 00:02:05;;;;;;;12.60;8.45;;;7.10;89.00;;;;;;5088872;28;20103;-75
2022/05/06 00:04:30;;;;;;;13.70;8.40;;;7.10;88.90;;;;;;5070188;28;20024;-75
2022/05/06 00:06:56;;;;;;;15.43;8.68;;;7.00;88.50;;;;;;5079830;28;20020;-75
2022/05/06 00:09:22;;;;;;;15.13;7.50;;;6.90;88.10;;;;;;5092079;28;20095;-75
2022/05/06 00:11:48;;;;;;;12.90;7.88;;;6.80;87.70;;;;;;5072730;28;20028;-75
2022/05/06 00:14:14;;;;;;;12.25;7.63;;;6.80;88.10;;;;;;5073496;28;20039;-75
2022/05/06 00:16:40;;;;;;;13.82;9.20;;;6.80;88.10;;;;;;5081997;28;20032;-75
2022/05/06 00:19:05;;;;;;;13.18;8.98;;;6.80;88.10;;;;;;5064893;28;20394;-76
2022/05/06 00:21:31;;;;;;;18.27;9.82;;;6.70;88.20;;;;;;5076345;28;20050;-74
2022/05/06 00:23:56;;;;;;;15.68;9.88;;;6.70;88.20;;;;;;5081943;28;20032;-74
2022/05/06 00:26:22;;;;;;;18.13;10.63;;;6.70;88.30;;;;;;5070690;28;20039;-74
2022/05/06 00:28:47;;;;;;;15.82;9.68;;;6.70;88.50;;;;;;5066769;28;20024;-74
2022/05/06 00:31:14;;;;;;;13.38;9.13;;;6.70;88.60;;;;;;5085081;28;20046;-74
2022/05/06 00:33:40;;;;;;;15.75;9.95;;;6.60;88.70;;;;;;5061960;28;20032;-74
2022/05/06 00:36:05;;;;;;;16.77;9.93;;;6.60;88.80;;;;;;5069714;28;20114;-74
2022/05/06 00:38:31;;;;;;;16.75;9.68;;;6.50;88.70;;;;;;5087701;28;20146;-74
2022/05/06 00:40:57;;;;;;;14.65;9.57;;;6.50;88.70;;;;;;5092303;28;20079;-74
2022/05/06 00:43:27;;;;;;;15.43;9.48;;;6.50;88.70;;;;;;5093875;28;20482;-74
2022/05/06 00:45:55;;;;;;;15.50;8.55;;;6.40;88.70;;;;;;5088786;28;20081;-74
2022/05/06 00:48:30;;;;;;;14.77;9.32;;;6.40;89.00;;;;;;5074739;28;20417;-74
2022/05/06 00:50:59;;;;;;;13.48;8.50;;;6.30;88.60;;;;;;5092402;28;20043;-74
2022/05/06 00:53:24;;;;;;;20.02;9.63;;;6.30;88.60;;;;;;5092355;28;20031;-74
2022/05/06 00:55:51;;;;;;;17.13;10.55;;;6.30;88.90;;;;;;5091817;28;20031;-73
2022/05/06 00:58:18;;;;;;;17.77;10.20;;;6.30;89.20;;;;;;5075551;28;20029;-74
2022/05/06 01:00:44;;;;;;;20.20;11.38;;;6.30;89.40;;;;;;5092709;28;20394;-74
2022/05/06 01:03:10;;;;;;;17.10;11.48;;;6.30;89.40;;;;;;5093491;28;20027;-74
2022/05/06 01:05:37;;;;;;;18.73;10.98;;;6.20;89.50;;;;;;5093475;28;20039;-74
2022/05/06 01:08:03;;;;;;;17.83;10.73;;;6.20;89.60;;;;;;5093848;28;20024;-74
2022/05/06 01:10:30;;;;;;;18.67;11.82;;;6.10;89.60;;;;;;5093368;28;20040;-74
2022/05/06 01:12:55;;;;;;;17.42;11.45;;;6.10;89.70;;;;;;5088806;28;20020;-74
2022/05/06 01:15:23;;;;;;;19.25;11.55;;;6.20;89.90;;;;;;5107941;28;20036;-74
2022/05/06 01:17:49;;;;;;;17.63;10.52;;;6.10;90.00;;;;;;5074804;28;20024;-74
2022/05/06 01:20:16;;;;;;;16.48;11.07;;;6.10;89.70;;;;;;5074205;28;20474;-75
2022/05/06 01:22:47;;;;;;;17.85;11.65;;;6.10;89.70;;;;;;5093639;28;20024;-74
2022/05/06 01:25:13;;;;;;;18.27;11.52;;;6.10;89.70;;;;;;5092713;28;20111;-74
2022/05/06 01:28:03;;;;;;;18.77;10.73;;;6.10;89.80;;;;;;5102414;28;20023;-74
2022/05/06 01:30:34;;;;;;;19.63;11.32;;;6.00;89.80;;;;;;5087109;28;20143;-75
2022/05/06 01:33:01;;;;;;;;;;;6.10;90.00;;;;;;5091563;28;20035;-74
2022/05/06 01:35:28;;;;;;;15.60;10.07;;;6.00;90.00;;;;;;5094223;28;19904;-74
2022/05/06 01:37:57;;;;;;;19.27;11.88;;;6.00;90.20;;;;;;5101713;28;20080;-74
2022/05/06 01:40:27;;;;;;;25.02;11.48;;;6.00;90.20;;;;;;5076139;28;20429;-74
2022/05/06 01:42:57;;;;;;;19.52;11.18;;;5.90;90.60;;;;;;5094783;28;20039;-74
2022/05/06 01:45:24;;;;;;;18.13;10.93;;;5.80;90.60;;;;;;5073941;28;20036;-74
2022/05/06 01:47:54;;;;;;;21.17;10.70;;;5.80;90.70;;;;;;5081641;28;20111;-74
2022/05/06 01:50:21;;;;;;;16.80;10.65;;;5.80;90.60;;;;;;5096822;28;20098;-75
2022/05/06 01:52:50;;;;;;;20.00;11.55;;;5.80;90.40;;;;;;5096699;28;20077;-74
2022/05/06 01:55:16;;;;;;;20.17;11.35;;;5.80;90.60;;;;;;5097674;28;20041;-74
2022/05/06 01:57:43;;;;;;;19.95;11.20;;;5.70;90.50;;;;;;5101735;28;20992;-74
2022/05/06 02:00:09;;;;;;;22.38;11.32;;;5.70;90.60;;;;;;5090460;28;20040;-74
2022/05/06 02:02:34;;;;;;;24.63;12.63;;;5.70;91.00;;;;;;5069981;28;20025;-74
2022/05/06 02:05:19;;;;;;;22.50;12.65;;;5.70;91.10;;;;;;5080817;28;20050;-74
2022/05/06 02:07:49;;;;;;;25.50;13.23;;;5.70;91.10;;;;;;5108443;28;20024;-74
2022/05/06 02:10:16;;;;;;;21.30;12.25;;;5.70;91.10;;;;;;5111335;28;20035;-74
2022/05/06 02:12:42;;;;;;;22.30;12.23;;;5.70;91.20;;;;;;5112829;28;20028;-74
2022/05/06 02:15:08;;;;;;;24.92;13.27;;;5.60;91.10;;;;;;5107569;28;20037;-74
2022/05/06 02:17:34;;;;;;;21.73;12.73;;;5.60;90.80;;;;;;5093286;28;20054;-74
2022/05/06 02:20:00;;;;;;;27.65;15.07;;;5.60;90.90;;;;;;5094002;28;20032;-75
2022/05/06 02:22:29;;;;;;;24.75;14.55;;;5.60;91.00;;;;;;5090833;28;20050;-74
2022/05/06 02:24:57;;;;;;;25.60;14.55;;;5.60;91.20;;;;;;5072501;28;20039;-75
2022/05/06 02:27:23;;;;;;;28.20;15.63;;;5.60;91.20;;;;;;5090558;28;20044;-75
2022/05/06 02:35:17;;;;;;;35.95;17.15;;;5.50;91.50;;;;;;5094349;28;20122;-75
2022/05/06 02:37:43;;;;;;;32.33;16.63;;;5.40;91.50;;;;;;5091717;28;20055;-74
2022/05/06 02:40:10;;;;;;;32.72;18.25;;;5.50;91.90;;;;;;5087688;28;20119;-74
2022/05/06 02:42:36;;;;;;;30.63;17.65;;;5.50;92.00;;;;;;5090340;28;20487;-74
2022/05/06 02:45:02;;;;;;;34.75;17.95;;;5.40;91.90;;;;;;5068930;28;20039;-74
2022/05/06 02:47:29;;;;;;;41.20;18.67;;;5.40;91.90;;;;;;5073772;28;20143;-74
2022/05/06 02:49:54;;;;;;;37.80;20.55;;;5.40;91.90;;;;;;5091920;28;20036;-74
2022/05/06 02:52:22;;;;;;;39.97;20.05;;;5.50;92.10;;;;;;5093589;28;20042;-74
2022/05/06 02:54:48;;;;;;;43.97;19.60;;;5.50;92.10;;;;;;5055213;28;20078;-74
2022/05/06 02:57:15;;;;;;;38.13;19.80;;;5.40;92.30;;;;;;5095667;28;20044;-74
2022/05/06 02:59:41;;;;;;;36.08;18.60;;;5.50;92.40;;;;;;5082601;28;20040;-74
2022/05/06 03:02:07;;;;;;;40.35;20.77;;;5.50;92.30;;;;;;5090179;28;20024;-74
2022/05/06 03:04:33;;;;;;;42.60;19.63;;;5.50;92.50;;;;;;5091257;28;20477;-74
2022/05/06 03:06:59;;;;;;;43.15;20.77;;;5.50;92.30;;;;;;5091920;28;20027;-75
2022/05/06 03:09:25;;;;;;;40.22;20.30;;;5.60;92.70;;;;;;5089815;28;20032;-75
2022/05/06 03:11:52;;;;;;;41.85;20.48;;;5.60;92.50;;;;;;5078266;28;20110;-74
2022/05/06 03:14:17;;;;;;;39.55;20.05;;;5.70;92.70;;;;;;5072022;28;20815;-75
2022/05/06 03:16:43;;;;;;;41.80;19.92;;;5.80;92.70;;;;;;5091119;28;20431;-74
2022/05/06 03:19:09;;;;;;;39.65;20.13;;;5.90;92.70;;;;;;5081751;28;20110;-74
2022/05/06 03:21:35;;;;;;;40.92;21.73;;;6.00;92.60;;;;;;5084679;28;20020;-74
2022/05/06 03:24:01;;;;;;;43.55;21.85;;;6.10;92.40;;;;;;5098453;28;20036;-75
2022/05/06 03:26:26;;;;;;;34.28;19.13;;;6.20;92.40;;;;;;5097489;28;20055;-74
2022/05/06 03:28:57;;;;;;;37.95;20.50;;;6.30;92.20;;;;;;5072728;28;20394;-74
2022/05/06 03:31:25;;;;;;;36.97;20.73;;;6.30;92.20;;;;;;5066805;28;20043;-74
2022/05/06 03:33:52;;;;;;;32.42;19.05;;;6.40;92.20;;;;;;5089413;28;20482;-75
2022/05/06 03:36:18;;;;;;;38.42;20.38;;;6.50;92.10;;;;;;5085573;28;20470;-74
2022/05/06 03:38:44;;;;;;;38.22;20.45;;;6.50;92.20;;;;;;5071236;28;20032;-74
2022/05/06 03:41:09;;;;;;;35.25;19.50;;;6.50;92.30;;;;;;5064632;28;20044;-75
2022/05/06 03:43:35;;;;;;;34.60;19.50;;;6.60;92.40;;;;;;5070049;28;20041;-75
2022/05/06 03:46:00;;;;;;;32.03;18.80;;;6.60;92.40;;;;;;5068863;28;20468;-74
2022/05/06 03:48:26;;;;;;;36.08;18.55;;;6.60;92.20;;;;;;5053069;28;20472;-74
2022/05/06 03:53:36;;;;;;;36.40;18.10;;;6.50;92.20;;;;;;5071025;28;20100;-74
2022/05/06 03:56:05;;;;;;;30.25;17.40;;;6.50;92.20;;;;;;5073475;28;20131;-74
2022/05/06 03:58:32;;;;;;;28.55;17.15;;;6.40;92.20;;;;;;5069769;28;20028;-75
2022/05/06 04:00:58;;;;;;;25.77;16.67;;;6.30;91.90;;;;;;5064833;28;20032;-75
2022/05/06 04:03:23;;;;;;;28.95;16.30;;;6.20;91.90;;;;;;5075839;28;20530;-75
2022/05/06 04:05:49;;;;;;;26.60;15.35;;;6.10;91.80;;;;;;5068317;28;20035;-75
2022/05/06 04:08:16;;;;;;;26.90;16.80;;;6.10;91.80;;;;;;5074582;28;20433;-75
2022/05/06 04:10:42;;;;;;;23.70;14.90;;;6.10;91.70;;;;;;5070051;28;20047;-74
2022/05/06 04:13:07;;;;;;;27.90;16.25;;;6.00;91.90;;;;;;5052113;28;20029;-74
2022/05/06 04:15:33;;;;;;;27.00;15.82;;;6.00;91.90;;;;;;5068767;28;20073;-74
2022/05/06 04:18:01;;;;;;;24.73;14.18;;;5.90;91.70;;;;;;5054571;28;20032;-69
2022/05/06 04:25:55;;;;;;;24.42;14.18;;;5.80;91.60;;;;;;5060871;28;20086;-69
2022/05/06 04:28:21;;;;;;;25.10;14.77;;;5.80;91.40;;;;;;5067025;28;20107;-71
2022/05/06 04:30:46;;;;;;;24.60;15.05;;;5.80;91.10;;;;;;5069909;28;20111;-71
2022/05/06 04:33:12;;;;;;;29.80;15.35;;;5.80;91.20;;;;;;5069597;28;20029;-70
2022/05/06 04:35:39;;;;;;;25.00;14.98;;;5.80;91.40;;;;;;5064766;28;20086;-70
2022/05/06 04:38:04;;;;;;;29.42;15.48;;;5.80;91.60;;;;;;5067104;28;20451;-71
2022/05/06 04:40:30;;;;;;;32.92;18.08;;;5.90;92.00;;;;;;5063825;28;20060;-71
2022/05/06 04:42:55;;;;;;;31.30;17.30;;;6.00;92.20;;;;;;5064154;28;20048;-71
2022/05/06 04:45:21;;;;;;;30.75;16.23;;;6.00;92.40;;;;;;5072891;28;20044;-71
2022/05/06 04:47:46;;;;;;;32.50;17.30;;;6.00;92.40;;;;;;5067562;28;20029;-72
2022/05/06 04:50:12;;;;;;;37.63;18.10;;;6.10;92.50;;;;;;5068902;28;20048;-71
2022/05/06 04:52:37;;;;;;;35.30;19.45;;;6.10;92.60;;;;;;5046873;28;20036;-72
2022/05/06 04:55:03;;;;;;;35.63;18.95;;;6.20;92.50;;;;;;5061432;28;20032;-73
2022/05/06 04:57:29;;;;;;;38.08;19.85;;;6.10;92.10;;;;;;5066885;28;20041;-71
2022/05/06 04:59:54;;;;;;;36.67;18.23;;;6.20;92.10;;;;;;5061715;28;20537;-72
2022/05/06 05:02:20;;;;;;;37.45;20.00;;;6.40;92.10;;;;;;5061372;28;20043;-72
2022/05/06 05:04:46;;;;;;;38.17;19.63;;;6.40;92.20;;;;;;5070598;28;20506;-72
2022/05/06 05:07:12;;;;;;;42.92;20.40;;;6.50;92.10;;;;;;5056764;28;20028;-72
2022/05/06 05:09:38;;;;;;;41.00;21.13;;;6.50;92.20;;;;;;5068113;28;20471;-72
2022/05/06 05:12:04;;;;;;;39.05;20.95;;;6.60;92.40;;;;;;5069090;28;20374;-71
2022/05/06 05:14:33;;;;;;;36.00;20.95;;;6.70;92.50;;;;;;5069033;28;20037;-71
2022/05/06 05:16:58;;;;;;;37.33;20.85;;;6.70;92.50;;;;;;5063855;28;20028;-71
2022/05/06 05:19:24;;;;;;;46.20;22.65;;;6.90;92.70;;;;;;5071347;28;20037;-71
2022/05/06 05:21:49;;;;;;;40.08;22.92;;;7.00;92.80;;;;;;5075538;28;20101;-71
2022/05/06 05:24:15;;;;;;;46.40;24.17;;;7.10;92.80;;;;;;5069758;28;20039;-71
2022/05/06 05:26:40;;;;;;;45.38;23.30;;;7.20;92.80;;;;;;5086170;28;20099;-71
2022/05/06 05:29:06;;;;;;;43.47;23.77;;;7.30;92.90;;;;;;5090441;28;20047;-71
2022/05/06 05:31:32;;;;;;;41.17;22.67;;;7.40;92.80;;;;;;5075445;28;20363;-71
2022/05/06 05:33:57;;;;;;;44.50;24.45;;;7.50;92.80;;;;;;5070639;28;20059;-71
2022/05/06 05:36:23;;;;;;;41.88;22.40;;;7.70;92.80;;;;;;5076141;28;20043;-71
2022/05/06 05:38:48;;;;;;;41.35;23.55;;;7.80;92.70;;;;;;5086001;28;20078;-71
2022/05/06 05:41:13;;;;;;;44.08;24.13;;;7.90;92.60;;;;;;5078796;28;20063;-71
2022/05/06 05:49:08;;;;;;;40.67;22.40;;;8.20;91.70;;;;;;5087847;28;20030;-71
2022/05/06 05:51:33;;;;;;;34.05;19.52;;;8.40;91.30;;;;;;5082213;28;20047;-72
2022/05/06 05:53:59;;;;;;;31.00;18.65;;;8.60;90.80;;;;;;5092553;28;20067;-71
2022/05/06 05:56:25;;;;;;;35.58;19.05;;;8.80;90.20;;;;;;5094222;28;20370;-72
2022/05/06 05:58:51;;;;;;;33.30;18.05;;;8.90;89.90;;;;;;5099542;28;20028;-69
2022/05/06 06:01:17;;;;;;;30.27;18.65;;;9.10;89.50;;;;;;5083754;28;20054;-69
2022/05/06 06:03:43;;;;;;;31.25;19.15;;;9.20;89.10;;;;;;5091275;28;20401;-69
2022/05/06 06:06:08;;;;;;;34.20;18.15;;;9.40;89.10;;;;;;5100272;28;20031;-69
2022/05/06 06:08:34;;;;;;;26.52;15.45;;;9.60;88.50;;;;;;5085873;28;20384;-69
2022/05/06 06:11:01;;;;;;;33.60;15.05;;;9.80;87.70;;;;;;5091287;28;20036;-69
2022/05/06 06:13:28;;;;;;;23.40;13.23;;;10.00;87.10;;;;;;5093149;28;20036;-69
2022/05/06 06:15:53;;;;;;;21.77;10.43;;;10.10;85.80;;;;;;5088732;28;20475;-69
2022/05/06 06:18:24;;;;;;;18.05;11.40;;;10.20;83.80;;;;;;5079799;28;20024;-70
2022/05/06 06:20:49;;;;;;;20.33;11.73;;;10.50;83.80;;;;;;5090037;28;20056;-69
2022/05/06 06:23:15;;;;;;;20.00;12.00;;;10.60;83.70;;;;;;5092223;28;20463;-69
2022/05/06 06:25:41;;;;;;;20.13;13.25;;;10.80;83.20;;;;;;5090250;28;20028;-69
2022/05/06 06:28:06;;;;;;;21.95;13.23;;;10.90;82.30;;;;;;5091375;28;20031;-69
2022/05/06 06:30:32;;;;;;;19.63;12.60;;;11.10;82.30;;;;;;5088468;28;20074;-69
2022/05/06 06:32:58;;;;;;;18.45;11.93;;;11.30;82.40;;;;;;5084414;28;20039;-69
2022/05/06 06:35:23;;;;;;;21.90;12.27;;;11.40;82.00;;;;;;5084697;28;20036;-69
2022/05/06 06:37:49;;;;;;;21.63;12.77;;;11.70;82.60;;;;;;5088528;28;20054;-69
2022/05/06 06:40:14;;;;;;;19.20;12.40;;;11.80;81.30;;;;;;5088191;28;20036;-69
2022/05/06 06:42:42;;;;;;;20.17;12.07;;;12.10;81.30;;;;;;5075768;28;20544;-69
2022/05/06 06:45:09;;;;;;;20.10;12.73;;;12.20;80.50;;;;;;5091633;28;20131;-69
2022/05/06 06:47:35;;;;;;;17.85;11.98;;;12.30;79.40;;;;;;5084508;28;20016;-70
2022/05/06 06:50:01;;;;;;;16.70;11.50;;;12.40;79.50;;;;;;5088104;28;20036;-69
2022/05/06 06:52:27;;;;;;;17.50;11.05;;;12.60;79.40;;;;;;5083882;28;20619;-70
2022/05/06 06:54:52;;;;;;;17.92;10.55;;;12.90;80.40;;;;;;5089971;28;20379;-69
2022/05/06 06:57:18;;;;;;;15.18;10.65;;;12.90;78.10;;;;;;5087723;28;20040;-69
2022/05/06 06:59:43;;;;;;;17.17;10.57;;;13.10;79.00;;;;;;5090230;28;20036;-69
2022/05/06 07:02:09;;;;;;;16.20;10.68;;;13.40;78.30;;;;;;5087605;28;20039;-69
2022/05/06 07:04:34;;;;;;;15.63;10.65;;;13.40;77.50;;;;;;5090908;28;20008;-70
2022/05/06 07:12:28;;;;;;;14.60;9.35;;;13.60;75.00;;;;;;5088270;28;20453;-70
2022/05/06 07:14:55;;;;;;;14.82;9.18;;;13.60;74.60;;;;;;5091469;28;20012;-70
2022/05/06 07:17:21;;;;;;;14.25;9.35;;;13.90;75.10;;;;;;5088104;28;20040;-70
2022/05/06 07:19:47;;;;;;;15.48;9.57;;;13.90;74.10;;;;;;5077663;28;20451;-70
2022/05/06 07:22:12;;;;;;;13.90;9.15;;;14.20;74.10;;;;;;5093513;28;20030;-70
2022/05/06 07:24:38;;;;;;;13.60;9.45;;;14.50;72.90;;;;;;5098117;28;20096;-70
2022/05/06 07:27:03;;;;;;;14.88;9.23;;;14.60;72.30;;;;;;5096456;28;20481;-70
2022/05/06 07:29:31;;;;;;;14.43;9.75;;;14.60;71.50;;;;;;5073558;28;20032;-70
2022/05/06 07:31:56;;;;;;;15.75;8.95;;;14.80;71.60;;;;;;5095244;28;20362;-70
2022/05/06 07:34:22;;;;;;;13.07;9.43;;;14.90;70.70;;;;;;5080241;28;20028;-70
2022/05/06 07:36:47;;;;;;;16.08;10.57;;;14.80;70.70;;;;;;5095581;28;20489;-70
2022/05/06 07:39:14;;;;;;;14.52;9.38;;;14.90;70.20;;;;;;5089307;28;20039;-70
2022/05/06 07:41:40;;;;;;;15.02;9.95;;;15.10;70.20;;;;;;5092605;28;20032;-70
2022/05/06 07:44:07;;;;;;;20.17;9.68;;;15.10;69.50;;;;;;5084278;28;20469;-70
2022/05/06 07:46:33;;;;;;;12.52;9.35;;;15.30;68.80;;;;;;5095449;28;20020;-70
2022/05/06 07:48:59;;;;;;;14.95;9.82;;;15.60;68.40;;;;;;5089630;28;20027;-70
2022/05/06 07:51:25;;;;;;;17.10;9.57;;;15.70;68.20;;;;;;5090053;28;20057;-70
2022/05/06 07:53:52;;;;;;;15.50;10.02;;;16.10;67.60;;;;;;5089484;28;20447;-70
2022/05/06 07:56:21;;;;;;;14.85;8.95;;;16.00;65.40;;;;;;5083792;28;20455;-70
2022/05/06 07:58:47;;;;;;;13.23;9.02;;;16.00;66.30;;;;;;5066221;28;20024;-70
2022/05/06 08:01:13;;;;;;;14.93;9.13;;;16.30;65.90;;;;;;5091950;28;20446;-70
2022/05/06 08:06:23;;;;;;;16.20;9.43;;;16.40;65.80;;;;;;5077122;28;20031;-70
2022/05/06 08:08:49;;;;;;;14.00;9.23;;;16.50;66.10;;;;;;5088917;28;20031;-70
2022/05/06 08:11:15;;;;;;;14.18;9.48;;;16.30;65.10;;;;;;5087394;28;20024;-70
2022/05/06 08:13:40;;;;;;;18.13;10.23;;;16.50;65.50;;;;;;5090923;28;20040;-70
2022/05/06 08:16:06;;;;;;;19.17;10.95;;;16.80;64.60;;;;;;5089916;28;20073;-70
2022/05/06 08:18:31;;;;;;;16.70;11.20;;;17.20;64.20;;;;;;5091326;28;20036;-70
2022/05/06 08:20:57;;;;;;;16.73;11.35;;;16.80;62.80;;;;;;5090227;28;20035;-70
2022/05/06 08:23:23;;;;;;;16.60;10.75;;;17.10;64.50;;;;;;5085454;28;20481;-70
2022/05/06 08:25:50;;;;;;;20.10;10.77;;;17.30;63.20;;;;;;5090985;28;20036;-70
2022/05/06 08:28:17;;;;;;;21.27;12.23;;;17.30;63.50;;;;;;5089945;28;20120;-70
2022/05/06 08:30:44;;;;;;;15.98;10.90;;;17.30;62.30;;;;;;5090644;28;20032;-70
2022/05/06 08:33:10;;;;;;;17.92;11.07;;;17.50;63.50;;;;;;5090409;28;20047;-70
2022/05/06 08:35:35;;;;;;;16.98;11.40;;;17.50;61.50;;;;;;5091028;28;20389;-70
2022/05/06 08:38:01;;;;;;;19.00;11.38;;;17.60;61.60;;;;;;5089796;28;20069;-70
2022/05/06 08:40:31;;;;;;;15.30;10.48;;;17.80;60.80;;;;;;5083487;28;20040;-70
2022/05/06 08:42:57;;;;;;;17.30;11.05;;;17.70;60.60;;;;;;5087932;28;22753;-70
2022/05/06 08:50:53;;;;;;;16.25;11.15;;;17.90;60.70;;;;;;5086964;28;20035;-69
2022/05/06 08:53:40;;;;;;;16.90;10.40;;;18.70;60.50;;;;;;5078057;28;20372;-69
2022/05/06 08:56:06;;;;;;;14.30;10.43;;;18.60;57.30;;;;;;5085996;28;20416;-69
2022/05/06 08:58:37;;;;;;;15.90;10.20;;;18.80;58.40;;;;;;5091871;28;20032;-69
2022/05/06 09:01:06;;;;;;;15.38;10.88;;;18.70;56.70;;;;;;5092487;28;20447;-69
2022/05/06 09:03:32;;;;;;;16.80;11.02;;;18.80;56.60;;;;;;5075380;28;20423;-69
2022/05/06 09:05:58;;;;;;;18.60;10.77;;;18.60;57.40;;;;;;5092959;28;20104;-69
2022/05/06 09:08:36;;;;;;;15.63;10.52;;;18.70;58.30;;;;;;5087650;28;20043;-69
2022/05/06 09:11:04;;;;;;;17.73;10.90;;;19.00;56.80;;;;;;5089624;28;20040;-69
2022/05/06 09:13:31;;;;;;;16.70;9.70;;;19.00;56.90;;;;;;5072330;28;20024;-69
2022/05/06 09:17:06;;;;;;;16.23;10.15;;;19.00;57.70;;;;;;5081755;28;20065;-69
2022/05/06 09:19:20;;;;;;;16.88;9.52;;;19.30;56.30;;;;;;5070767;28;20043;-69
2022/05/06 09:22:11;;;;;;;15.43;9.63;;;19.00;55.20;;;;;;5088693;28;20069;-69
2022/05/06 09:24:38;;;;;;;15.00;10.32;;;19.00;56.00;;;;;;5082199;28;20379;-69
2022/05/06 09:27:12;;;;;;;16.52;10.10;;;19.10;54.20;;;;;;5089329;28;20040;-69
2022/05/06 09:29:39;;;;;;;20.23;11.15;;;19.10;55.20;;;;;;5086864;28;20028;-69
2022/05/06 09:32:25;;;;;;;17.20;10.93;;;19.30;55.70;;;;;;5090348;28;20039;-69
2022/05/06 09:34:57;;;;;;;16.70;10.95;;;20.00;54.80;;;;;;5096243;28;20016;-69
2022/05/06 09:37:31;;;;;;;14.60;8.90;;;20.00;53.30;;;;;;5084452;28;20032;-69
2022/05/06 09:40:30;;;;;;;14.85;9.82;;;20.00;51.60;;;;;;5091246;28;20073;-69
2022/05/06 09:42:55;;;;;;;14.90;9.02;;;19.30;52.30;;;;;;5089265;28;20035;-69
2022/05/06 09:45:38;;;;;;;13.48;9.00;;;19.90;52.00;;;;;;5093457;28;20432;-69
2022/05/06 09:48:05;;;;;;;12.70;7.80;;;20.10;51.30;;;;;;5091392;28;20028;-70
2022/05/06 09:50:36;;;;;;;16.45;9.25;;;20.10;51.90;;;;;;5090982;28;20478;-70
2022/05/06 09:53:03;;;;;;;;;;;20.10;50.40;;;;;;5091124;28;20019;-70
2022/05/06 09:55:29;;;;;;;12.00;8.27;;;20.40;51.30;;;;;;5097040;28;19903;-70
2022/05/06 09:57:59;;;;;;;15.20;8.25;;;20.50;52.50;;;;;;5091437;28;20016;-70
2022/05/06 10:00:27;;;;;;;12.90;8.25;;;21.10;51.30;;;;;;5094364;28;20043;-69
2022/05/06 10:02:54;;;;;;;11.98;8.02;;;21.20;49.50;;;;;;5088643;28;20055;-69
2022/05/06 10:05:20;;;;;;;11.80;7.97;;;21.10;49.60;;;;;;5090532;28;20039;-70
2022/05/06 10:07:46;;;;;;;12.80;7.68;;;20.90;49.70;;;;;;5084869;28;20024;-70
2022/05/06 10:10:30;;;;;;;13.63;7.45;;;21.10;48.50;;;;;;5088851;28;20058;-70
2022/05/06 10:13:02;;;;;;;9.85;6.80;;;21.50;46.20;;;;;;5090810;28;20028;-70
2022/05/06 10:15:29;;;;;;;11.55;7.15;;;21.20;46.70;;;;;;5082328;28;20024;-70
2022/05/06 10:17:55;;;;;;;9.93;6.90;;;21.10;47.30;;;;;;5095444;28;20028;-70
2022/05/06 10:20:35;;;;;;;11.82;7.30;;;21.30;47.30;;;;;;5099807;28;20038;-70
2022/05/06 10:23:12;;;;;;;16.40;7.03;;;20.50;46.60;;;;;;5080712;28;20031;-70
2022/05/06 10:25:40;;;;;;;9.18;7.50;;;20.90;47.60;;;;;;5077302;28;20059;-70
2022/05/06 10:34:09;;;;;;;11.70;6.43;;;21.30;47.50;;;;;;5088797;28;20071;-70
2022/05/06 10:36:45;;;;;;;11.83;6.60;;;21.60;45.10;;;;;;5091344;28;20510;-70
2022/05/06 10:39:36;;;;;;;14.10;6.90;;;22.00;46.20;;;;;;5084360;28;20165;-70
2022/05/06 10:42:06;;;;;;;13.75;7.32;;;21.80;45.60;;;;;;5094847;28;20052;-70
2022/05/06 10:44:35;;;;;;;11.57;6.28;;;21.50;45.50;;;;;;5102012;28;20119;-70
2022/05/06 10:47:03;;;;;;;9.00;5.05;;;20.90;46.40;;;;;;5099176;28;20745;-70
2022/05/06 10:49:34;;;;;;;7.60;5.43;;;20.90;46.10;;;;;;5082303;28;20039;-70
2022/05/06 10:52:33;;;;;;;9.95;6.20;;;20.20;46.80;;;;;;5100794;28;20081;-70
2022/05/06 10:55:00;;;;;;;11.18;6.72;;;20.40;47.10;;;;;;5049052;28;20135;-70
2022/05/06 10:57:45;;;;;;;10.13;6.35;;;20.00;48.20;;;;;;5072917;28;20061;-70
2022/05/06 11:00:12;;;;;;;10.75;6.40;;;19.70;48.50;;;;;;5097341;28;20584;-69
2022/05/06 11:02:38;;;;;;;11.65;6.50;;;19.40;49.70;;;;;;5093611;28;20036;-69
2022/05/06 11:05:09;;;;;;;11.02;6.07;;;20.00;48.60;;;;;;5088910;28;20036;-69
2022/05/06 11:07:35;;;;;;;;;;;20.80;46.90;;;;;;5060738;28;20061;-69
2022/05/06 11:10:16;;;;;;;8.90;5.93;;;21.10;46.50;;;;;;5088516;28;19911;-69
2022/05/06 11:12:45;;;;;;;9.27;5.45;;;21.10;45.30;;;;;;5089885;28;20053;-69
2022/05/06 11:15:15;;;;;;;11.50;5.93;;;22.00;45.30;;;;;;5089622;28;20028;-70
2022/05/06 11:17:42;;;;;;;10.00;5.10;;;21.70;43.20;;;;;;5084501;28;20024;-70
2022/05/06 11:20:23;;;;;;;8.88;5.18;;;22.10;42.90;;;;;;5090218;28;20036;-70
2022/05/06 11:22:57;;;;;;;7.85;4.68;;;22.00;42.60;;;;;;5090225;28;20067;-70
2022/05/06 11:25:25;;;;;;;8.98;4.53;;;22.50;42.20;;;;;;5088315;28;20039;-70
2022/05/06 11:27:52;;;;;;;8.25;4.50;;;22.90;42.00;;;;;;5088309;28;20107;-70
2022/05/06 11:30:19;;;;;;;9.07;5.22;;;23.40;40.20;;;;;;5089690;28;20509;-70
2022/05/06 11:32:50;;;;;;;6.22;4.35;;;22.60;42.00;;;;;;5089831;28;20373;-70
2022/05/06 11:35:20;;;;;;;8.63;4.53;;;23.00;41.10;;;;;;5087824;28;20028;-70
2022/05/06 11:37:47;;;;;;;9.23;5.15;;;22.50;42.40;;;;;;5090039;28;20024;-70
2022/05/06 11:40:36;;;;;;;7.72;4.25;;;21.10;43.70;;;;;;5082392;28;20032;-70
2022/05/06 11:43:21;;;;;;;6.93;3.90;;;20.90;43.60;;;;;;5068509;28;20029;-70
2022/05/06 11:48:45;;;;;;;10.10;4.45;;;22.70;42.40;;;;;;5057124;28;20032;-70
2022/05/06 11:51:15;;;;;;;7.53;3.78;;;23.00;41.50;;;;;;5068203;28;20048;-70
2022/05/06 11:53:43;;;;;;;7.22;3.80;;;23.00;41.10;;;;;;5061619;28;20416;-70
2022/05/06 11:56:09;;;;;;;6.53;3.05;;;24.00;42.60;;;;;;5069663;28;20032;-71
2022/05/06 11:58:36;;;;;;;6.28;3.10;;;23.70;38.70;;;;;;5065726;28;20094;-72
2022/05/06 12:01:02;;;;;;;5.85;3.03;;;23.70;38.20;;;;;;5065322;28;20378;-70
2022/05/06 12:03:29;;;;;;;6.85;2.67;;;24.20;38.40;;;;;;5072570;28;20073;-70
2022/05/06 12:06:08;;;;;;;5.28;2.78;;;24.50;36.70;;;;;;5060299;28;20036;-70
2022/05/06 12:08:36;;;;;;;5.70;2.35;;;24.20;35.80;;;;;;5068499;28;20135;-70
2022/05/06 12:11:06;;;;;;;7.93;2.80;;;24.10;36.60;;;;;;5068238;28;20037;-70
2022/05/06 12:13:38;;;;;;;5.22;3.00;;;24.60;36.80;;;;;;5065169;28;20115;-70
2022/05/06 12:16:05;;;;;;;6.38;3.05;;;24.20;38.40;;;;;;5074936;28;20035;-71
2022/05/06 12:18:31;;;;;;;4.55;2.53;;;24.40;37.30;;;;;;5066919;28;20032;-70
2022/05/06 12:20:57;;;;;;;6.75;2.85;;;24.50;36.90;;;;;;5070587;28;20073;-71
2022/05/06 12:23:29;;;;;;;6.32;2.95;;;24.60;36.40;;;;;;5082569;28;20035;-71
2022/05/06 12:25:56;;;;;;;4.03;2.20;;;25.50;35.80;;;;;;5060898;28;20626;-71
2022/05/06 12:28:22;;;;;;;4.95;2.65;;;25.80;36.60;;;;;;5063504;28;20375;-71
2022/05/06 12:30:56;;;;;;;4.55;2.08;;;24.40;36.10;;;;;;5068646;28;20451;-71
2022/05/06 12:33:22;;;;;;;5.40;2.60;;;24.50;37.50;;;;;;5077871;28;20028;-70
2022/05/06 12:36:00;;;;;;;4.82;2.58;;;25.30;35.00;;;;;;5076180;28;20020;-71
2022/05/06 12:38:36;;;;;;;4.43;2.25;;;24.90;34.50;;;;;;5067450;28;20037;-71
2022/05/06 12:41:15;;;;;;;4.25;2.38;;;23.60;36.40;;;;;;5076996;28;20154;-70
2022/05/06 12:43:40;;;;;;;5.15;2.35;;;22.70;37.20;;;;;;5072916;28;20082;-70
2022/05/06 12:46:06;;;;;;;6.03;2.95;;;22.20;39.50;;;;;;5091402;28;20048;-70
2022/05/06 12:51:15;;;;;;;5.72;2.78;;;22.10;38.60;;;;;;5088241;28;20051;-70
2022/05/06 12:53:41;;;;;;;5.95;2.80;;;22.10;39.40;;;;;;5070141;28;20032;-70
2022/05/06 12:56:18;;;;;;;5.82;2.80;;;21.60;40.10;;;;;;5085819;28;20031;-69
2022/05/06 12:58:43;;;;;;;5.53;2.40;;;21.20;41.30;;;;;;5070123;28;20032;-70
2022/05/06 13:01:09;;;;;;;5.40;2.55;;;22.00;39.90;;;;;;5081651;28;20081;-70
2022/05/06 13:03:34;;;;;;;5.43;2.75;;;22.30;38.70;;;;;;5087057;28;20031;-70
2022/05/06 13:06:00;;;;;;;3.65;2.28;;;21.50;40.00;;;;;;5064338;28;20031;-71
2022/05/06 13:08:27;;;;;;;6.93;2.13;;;21.40;41.20;;;;;;5076051;28;20074;-70
2022/05/06 13:10:53;;;;;;;4.18;2.03;;;21.30;41.10;;;;;;5074528;28;20064;-69
2022/05/06 13:13:18;;;;;;;5.47;2.33;;;21.90;40.40;;;;;;5078952;28;20055;-70
2022/05/06 13:15:44;;;;;;;5.00;2.28;;;23.10;38.40;;;;;;5078569;28;20102;-71
2022/05/06 13:18:10;;;;;;;3.95;2.10;;;23.80;35.70;;;;;;5078870;28;20037;-71
2022/05/06 13:20:36;;;;;;;5.15;1.98;;;23.30;36.40;;;;;;5073721;28;20020;-71
2022/05/06 13:23:01;;;;;;;2.83;1.67;;;24.20;35.80;;;;;;5064786;28;20028;-71
2022/05/06 13:25:28;;;;;;;5.68;2.30;;;24.10;37.00;;;;;;5078074;28;20067;-71
2022/05/06 13:27:54;;;;;;;3.58;1.73;;;23.50;37.10;;;;;;5076291;28;20028;-71